Roseau, MN

12:12 AM CDT on April 28, 2017 (GMT -0500)
MRNRM5 | | Change Station

Elev 1046 ft 48.85 °N, 95.70 °W | Updated 33 minutes ago

Light Snow
Light Snow
29.0 °F
Feels Like 29.0 °F
N
-
Wind Variable Wind from NW

Today
High -- | Low -- °F
--% Chance of Precip.
Yesterday
High -- | Low -- °F
Precip. -- in
Pressure 29.76 in
Visibility 4.0 miles
Clouds Scattered Clouds 1800 ft
Scattered Clouds 2300 ft
Overcast 4500 ft
Dew Point 27.0 °F
Humidity 93%
Rainfall in
Snow Depth Not available.
6:07 AM 8:34 PM
Waxing Crescent, 4% visible
METAR KROX 280455Z AUTO 33008KT 4SM -SN SCT018 SCT023 OVC045 M01/M03 A2976 RMK AO2
Pressure 29.76 in
Visibility 4.0 miles
Clouds Scattered Clouds 1800 ft
Scattered Clouds 2300 ft
Overcast 4500 ft
Dew Point 27.0 °F
Humidity 93%
Rainfall in
Snow Depth Not available.
6:07 AM 8:34 PM
Waxing Crescent, 4% visible
METAR KROX 280455Z AUTO 33008KT 4SM -SN SCT018 SCT023 OVC045 M01/M03 A2976 RMK AO2

Get Severe Weather Alerts

Thanks for signing up!

Be on the lookout for a verification email in your inbox.

You'll start receiving the daily forecast at 8 AM.

×

10-Day Weather Forecast

Almanac

Astronomy

Apr. 28, 2017 Rise Set
Actual Time
Civil Twilight
Nautical Twilight
Astronomical Twilight
Moon
Length of Visible Light
Length of Day
Tomorrow will be .
, % of the Moon is Illuminated

Today's Extremes

State Highs State Lows

Community

WunderPhotos

WunderBlog® & News

Nearby

Air Quality

  Air Quality AQ Index Pollutant
Not available.

Snow Depth

Station Depth Elevation

Earthquake Activity

City Distance Mag. Time & Date
Minimum magnitude displayed is 2.5.

Coastal Water Temperatures

Place Temperature

Stations

Nearby Weather Stations

Station Location Temp. Windchill Dew Point Humidity Wind Precip. Elev Updated Type
                   

Watches & Warnings

There are currently no watches in effect.